Time;durP1;ratioP1;P1;durP2;ratioP2;P2;SDS_P1;SDS_P2;PMS_P1;PMS_P2;Temp;Humidity;BMP_temperature;BMP_pressure;BME280_temperature;BME280_humidity;BME280_pressure;Samples;Min_cycle;Max_cycle;Signal;HPM_P1;HPM_P2
2022/11/23 00:03:39;;;;;;;;;3.00;2.00;;;;;11.04;71.23;-19507.16;4887943;29;45305;-95
2022/11/23 00:06:00;;;;;;;;;4.33;2.00;;;;;10.97;71.24;-19505.25;4888411;29;45468;-94
2022/11/23 00:12:28;;;;;;;;;3.00;3.00;;;;;10.83;72.01;-19501.47;4799116;29;45360;-94
2022/11/23 00:32:10;;;;;;;;;6.67;3.33;;;;;8.09;73.37;-19429.22;4903434;29;45553;-93
2022/11/23 00:34:35;;;;;;;;;4.00;3.00;;;;;8.54;73.37;-19441.13;4902842;29;45374;-93
2022/11/23 00:41:05;;;;;;;;;2.00;1.00;;;;;10.61;73.38;-19495.81;4826631;29;45998;-93
2022/11/23 00:46:51;;;;;;;;;5.33;4.00;;;;;9.62;73.94;-19469.78;4844330;29;45452;-94
2022/11/23 00:55:13;;;;;;;;;2.67;2.00;;;;;10.53;73.97;-19493.78;4908347;23;45402;-94
2022/11/23 01:01:03;;;;;;;;;3.33;3.33;;;;;8.16;74.04;-19431.25;4886049;29;45434;-95
2022/11/23 01:07:04;;;;;;;;;5.67;1.67;;;;;8.13;73.92;-19430.44;4862810;29;45925;-94
2022/11/23 01:09:37;;;;;;;;;3.00;2.00;;;;;8.08;73.98;-19428.94;4862922;29;46470;-94
2022/11/23 01:15:27;;;;;;;;;4.00;2.00;;;;;7.91;74.49;-19424.47;4863105;29;45289;-94
2022/11/23 01:21:14;;;;;;;;;1.67;1.33;;;;;9.55;74.69;-19467.88;4862816;29;45711;-94
2022/11/23 01:28:31;;;;;;;;;1.00;1.00;;;;;7.70;74.55;-19419.06;4863055;29;45498;-95
2022/11/23 01:36:07;;;;;;;;;2.33;2.33;;;;;9.18;75.10;-19458.03;5754305;23;71497;-93
2022/11/23 01:41:57;;;;;;;;;3.67;2.00;;;;;7.87;75.43;-19423.41;4870994;29;45475;-93
2022/11/23 01:44:33;;;;;;;;;1.33;1.00;;;;;7.72;75.23;-19419.47;4894619;29;46503;-92
2022/11/23 01:50:25;;;;;;;;;2.00;2.00;;;;;8.54;75.38;-19441.25;4843532;29;45582;-93
2022/11/23 01:56:27;;;;;;;;;2.33;2.00;;;;;8.59;75.71;-19442.47;4840926;29;45772;-94
2022/11/23 01:58:57;;;;;;;;;4.00;2.67;;;;;8.07;75.76;-19428.81;4827159;29;45387;-94
2022/11/23 02:04:48;;;;;;;;;1.33;1.33;;;;;10.19;75.81;-19484.75;4847260;29;45543;-93
2022/11/23 02:10:38;;;;;;;;;2.00;2.00;;;;;8.59;76.16;-19442.63;4839658;29;45545;-93
2022/11/23 02:16:44;;;;;;;;;3.00;1.67;;;;;8.87;76.31;-19449.91;4850277;29;45616;-94
2022/11/23 02:25:44;;;;;;;;;3.00;3.00;;;;;10.09;76.99;-19482.06;4789693;29;45511;-93
2022/11/23 02:31:32;;;;;;;;;7.33;5.00;;;;;8.80;77.18;-19448.16;5202640;23;45970;-93
2022/11/23 02:37:50;;;;;;;;;2.67;2.67;;;;;10.07;77.26;-19481.50;4858330;29;45363;-94
2022/11/23 02:40:26;;;;;;;;;5.00;3.00;;;;;8.38;77.89;-19436.94;4837212;29;45357;-94
2022/11/23 02:46:16;;;;;;;;;4.67;4.67;;;;;7.32;77.98;-19408.91;4806490;29;45532;-93
2022/11/23 02:48:41;;;;;;;;;6.00;4.33;;;;;9.58;78.54;-19468.56;4793227;29;45640;-94
2022/11/23 02:54:44;;;;;;;;;5.33;4.00;;;;;8.23;78.29;-19433.00;4743548;29;45810;-94
2022/11/23 03:00:32;;;;;;;;;5.67;4.00;;;;;9.08;78.86;-19414.97;4751706;29;45412;-94
2022/11/23 03:08:55;;;;;;;;;5.67;3.67;;;;;9.80;79.10;-19260.72;5802381;23;46276;-93
2022/11/23 03:15:31;;;;;;;;;4.00;4.00;;;;;10.07;79.33;-18257.84;4810342;29;45746;-94
2022/11/23 03:28:03;;;;;;;;;4.67;4.00;;;;;9.02;79.88;-14965.44;4802583;29;45960;-94
2022/11/23 03:30:29;;;;;;;;;6.00;4.67;;;;;9.41;79.75;-15112.31;5082989;23;47947;-93
2022/11/23 03:36:30;;;;;;;;;3.00;3.00;;;;;7.28;79.68;-13652.38;4807812;29;45884;-93
2022/11/23 03:42:21;;;;;;;;;6.00;3.00;;;;;7.64;80.31;-12429.28;4736620;30;45849;-93
2022/11/23 03:50:44;;;;;;;;;5.00;4.33;;;;;10.11;80.23;-10036.13;5332904;23;45333;-87
2022/11/23 03:53:11;;;;;;;;;3.00;3.00;;;;;9.93;80.79;-9798.53;4900113;29;46500;-89
2022/11/23 03:55:37;;;;;;;;;5.00;3.67;;;;;9.43;80.52;-9392.09;4897870;29;47192;-87
2022/11/23 03:58:03;;;;;;;;;4.00;4.00;;;;;9.85;80.79;-9248.88;4880122;29;45478;-87
2022/11/23 04:00:30;;;;;;;;;7.33;3.00;;;;;9.89;80.67;-8490.59;4900415;29;45379;-88
2022/11/23 04:02:56;;;;;;;;;3.33;3.00;;;;;10.07;80.91;-8010.34;4900420;29;46685;-88
2022/11/23 04:05:22;;;;;;;;;2.33;2.00;;;;;10.00;80.87;-8025.31;4899160;29;45535;-89
2022/11/23 04:07:48;;;;;;;;;4.00;4.00;;;;;10.39;80.72;-7403.72;4900660;29;45473;-89
2022/11/23 04:10:15;;;;;;;;;5.00;4.33;;;;;10.41;81.13;-6989.09;4900113;29;45496;-88
2022/11/23 04:12:41;;;;;;;;;6.00;3.00;;;;;10.35;80.89;-6993.91;4899400;29;45506;-88
2022/11/23 04:15:07;;;;;;;;;2.33;2.33;;;;;10.46;80.95;-5843.19;4881800;29;45729;-88
2022/11/23 04:17:32;;;;;;;;;4.33;3.00;;;;;10.26;81.33;-4854.31;4893704;28;45367;-89
2022/11/23 04:19:58;;;;;;;;;6.00;5.33;;;;;10.44;81.21;-3848.16;4899126;29;45494;-88
2022/11/23 04:22:23;;;;;;;;;7.33;5.33;;;;;10.15;81.50;-3523.56;4881881;29;48405;-89
2022/11/23 04:24:49;;;;;;;;;4.00;4.00;;;;;10.28;81.40;-3401.72;4900015;28;45674;-89
2022/11/23 04:27:14;;;;;;;;;5.00;4.00;;;;;10.20;81.04;-4125.38;4882722;29;45598;-88
2022/11/23 04:29:42;;;;;;;;;7.67;3.33;;;;;10.40;81.73;-2708.84;4889859;29;45481;-89
2022/11/23 04:39:02;;;;;;;;;4.00;3.00;;;;;9.42;81.91;432.69;4895056;29;45689;-87
2022/11/23 04:41:28;;;;;;;;;4.33;3.00;;;;;8.92;82.17;771.97;4899584;29;45379;-88
2022/11/23 04:43:54;;;;;;;;;3.33;3.00;;;;;9.23;81.75;670.16;4899362;29;45986;-88
2022/11/23 04:46:19;;;;;;;;;5.00;4.00;;;;;9.71;82.01;1210.19;4897663;29;45538;-89
2022/11/23 04:48:45;;;;;;;;;4.33;3.00;;;;;9.96;81.96;2250.59;4877609;29;45530;-88
2022/11/23 04:51:10;;;;;;;;;7.33;3.67;;;;;10.35;82.30;1913.50;4899657;28;45575;-89
2022/11/23 04:53:36;;;;;;;;;5.00;3.00;;;;;10.44;82.35;2525.00;4882420;29;48101;-87
2022/11/23 04:56:01;;;;;;;;;2.00;2.00;;;;;10.38;82.39;4214.13;4899311;29;45876;-88
2022/11/23 04:58:27;;;;;;;;;7.00;3.67;;;;;9.93;82.45;4479.09;4881279;29;45546;-89
2022/11/23 05:00:53;;;;;;;;;5.67;5.00;;;;;9.62;82.33;4903.91;4890038;28;45594;-88
2022/11/23 05:03:18;;;;;;;;;3.00;3.00;;;;;9.81;82.54;5766.34;4873954;29;46978;-88
2022/11/23 05:05:44;;;;;;;;;2.67;2.67;;;;;9.80;82.60;7011.16;4898698;29;45533;-87
2022/11/23 05:08:10;;;;;;;;;4.00;4.00;;;;;10.34;82.87;6793.72;4899147;29;45394;-89
2022/11/23 05:10:36;;;;;;;;;7.33;2.67;;;;;10.47;82.66;6564.06;4899318;29;45427;-89
2022/11/23 05:13:02;;;;;;;;;5.00;4.00;;;;;10.22;82.56;6261.16;4894819;29;46317;-90
2022/11/23 05:15:28;;;;;;;;;7.00;3.33;;;;;10.19;82.52;5870.53;4869659;29;45382;-89
2022/11/23 05:18:00;;;;;;;;;3.67;3.33;;;;;10.11;82.96;7250.41;4891454;28;45427;-88
2022/11/23 05:20:25;;;;;;;;;5.00;3.67;;;;;10.44;82.76;6574.09;4892190;29;45380;-88
2022/11/23 05:22:51;;;;;;;;;5.33;4.00;;;;;10.38;82.41;6856.66;4895511;29;47245;-89
2022/11/23 05:25:16;;;;;;;;;4.33;4.00;;;;;10.38;83.04;8183.81;4892380;29;45522;-90
2022/11/23 05:27:42;;;;;;;;;9.00;8.00;;;;;10.40;82.93;8559.09;4889798;28;45376;-89
2022/11/23 05:30:08;;;;;;;;;4.67;2.00;;;;;10.00;82.68;8767.53;4873124;29;45663;-88
2022/11/23 05:35:28;;;;;;;;;5.00;4.67;;;;;8.81;82.68;8422.88;4898088;29;45489;-87
2022/11/23 05:47:58;;;;;;;;;5.00;2.00;;;;;9.85;82.57;5813.78;4889885;28;45550;-89
2022/11/23 05:50:26;;;;;;;;;6.00;4.00;;;;;9.97;82.80;6785.09;4898583;29;45512;-88
2022/11/23 05:52:54;;;;;;;;;4.33;4.33;;;;;9.54;82.49;6882.28;4883457;29;45543;-89
2022/11/23 05:55:20;;;;;;;;;4.00;3.00;;;;;9.76;82.54;6199.59;4887313;29;46373;-88
2022/11/23 05:58:07;;;;;;;;;4.00;4.00;;;;;10.48;82.46;6473.16;4876344;29;45546;-89
2022/11/23 06:00:33;;;;;;;;;6.00;2.33;;;;;9.54;82.70;7594.22;4896899;28;45363;-88
2022/11/23 06:03:00;;;;;;;;;5.00;3.67;;;;;10.47;83.01;8505.69;4881887;29;45576;-87
2022/11/23 06:08:47;;;;;;;;;4.00;4.00;;;;;9.34;82.71;8562.56;4893937;29;45565;-88
2022/11/23 06:11:13;;;;;;;;;3.33;3.00;;;;;10.64;82.69;8488.00;4892535;29;45554;-88
2022/11/23 06:13:38;;;;;;;;;4.00;4.00;;;;;10.64;82.99;7803.19;4894680;29;45450;-88
2022/11/23 06:16:04;;;;;;;;;4.67;4.67;;;;;9.45;82.79;8650.44;4898891;29;46098;-89
2022/11/23 06:18:29;;;;;;;;;3.33;3.33;;;;;9.60;82.95;8544.16;4877132;29;45819;-88
2022/11/23 06:20:59;;;;;;;;;4.67;3.00;;;;;9.47;83.06;8445.59;4898608;29;45818;-88
2022/11/23 06:23:27;;;;;;;;;5.00;3.67;;;;;9.78;83.34;10425.50;4881920;29;45426;-88
2022/11/23 06:25:53;;;;;;;;;4.00;2.00;;;;;10.28;83.67;11913.09;4890437;29;46637;-88
2022/11/23 06:28:18;;;;;;;;;7.00;5.33;;;;;9.66;83.53;11671.75;4897617;29;45765;-89
2022/11/23 06:37:00;;;;;;;;;3.00;3.00;;;;;9.44;83.60;13607.34;5686515;23;45674;-85
2022/11/23 06:39:26;;;;;;;;;3.00;3.00;;;;;9.56;83.84;14748.31;4880381;29;46149;-87
2022/11/23 06:45:16;;;;;;;;;3.67;3.33;;;;;10.18;83.93;15579.38;4888790;29;45510;-88
2022/11/23 06:47:43;;;;;;;;;7.33;6.33;;;;;9.24;83.84;15764.69;4897080;29;46596;-94
2022/11/23 06:50:17;;;;;;;;;3.00;3.00;;;;;9.72;84.07;16258.66;4895516;28;45497;-95
2022/11/23 06:53:23;;;;;;;;;6.33;5.00;;;;;8.92;83.71;15983.69;5035424;23;45588;-91
2022/11/23 06:58:27;;;;;;;;;8.67;5.00;;;;;10.12;84.34;17139.22;4966103;23;73990;-95
2022/11/23 07:00:53;;;;;;;;;5.00;5.00;;;;;10.66;84.30;17342.22;4882005;29;45462;-89
2022/11/23 07:06:49;;;;;;;;;5.33;5.33;;;;;9.96;83.95;17102.59;4924884;23;45609;-86
2022/11/23 07:09:23;;;;;;;;;7.00;5.00;;;;;8.92;84.14;17222.38;4896609;28;46200;-86
2022/11/23 07:12:05;;;;;;;;;5.33;5.33;;;;;9.67;83.97;15160.44;4866272;29;45611;-87
2022/11/23 07:15:05;;;;;;;;;7.00;5.00;;;;;10.24;83.44;15255.34;4830079;29;45909;-89
2022/11/23 07:41:37;;;;;;;;;4.67;4.67;;;;;9.20;82.38;6458.81;4869968;23;45939;-87
2022/11/23 07:52:55;;;;;;;;;11.67;8.00;;;;;10.14;82.22;3824.13;4818265;29;45794;-88
2022/11/23 07:55:22;;;;;;;;;6.33;6.33;;;;;9.38;82.76;3537.91;4816641;29;45731;-88
2022/11/23 07:58:05;;;;;;;;;8.00;6.67;;;;;9.52;82.22;2947.63;4823310;29;46335;-89
2022/11/23 08:06:55;;;;;;;;;5.00;4.00;;;;;9.15;82.93;9803.59;5056148;23;45467;-87
2022/11/23 08:09:20;;;;;;;;;5.67;5.67;;;;;9.31;83.86;14751.53;4829874;29;45853;-87
2022/11/23 08:11:49;;;;;;;;;3.33;2.67;;;;;10.45;84.37;16816.13;4841256;29;45933;-88
2022/11/23 08:14:19;;;;;;;;;7.00;6.00;;;;;9.03;84.31;17778.13;4841460;29;45581;-88
2022/11/23 08:17:01;;;;;;;;;;;;;;;;;;;;;
2022/11/23 08:19:26;;;;;;;;;4.00;2.33;;;;;9.81;84.91;21439.94;4833909;29;75329;-88
2022/11/23 08:21:57;;;;;;;;;10.67;10.67;;;;;10.63;85.24;22925.09;4841236;29;45521;-87
2022/11/23 08:24:39;;;;;;;;;5.00;5.00;;;;;10.22;85.03;22712.22;4841447;29;45590;-87
2022/11/23 08:27:05;;;;;;;;;4.00;4.00;;;;;9.28;85.29;24916.69;4840104;29;45827;-89
2022/11/23 08:29:33;;;;;;;;;4.00;4.00;;;;;9.79;85.74;28236.72;4836048;29;46205;-88
2022/11/23 08:32:02;;;;;;;;;8.33;7.33;;;;;10.27;85.48;27525.84;4841169;29;45525;-88
2022/11/23 08:34:27;;;;;;;;;4.67;4.00;;;;;9.18;85.57;27553.22;4837857;29;45526;-87
2022/11/23 08:36:52;;;;;;;;;11.00;9.33;;;;;9.07;85.44;25919.44;4825556;29;45566;-88
2022/11/23 08:39:18;;;;;;;;;9.67;7.33;;;;;9.75;85.64;28171.94;4823076;29;47205;-86
2022/11/23 08:42:09;;;;;;;;;15.67;15.67;;;;;9.33;85.32;26176.78;5134408;23;45510;-88
2022/11/23 08:44:38;;;;;;;;;41.33;33.00;;;;;9.95;84.90;24534.06;4880340;29;45574;-88
2022/11/23 08:50:16;;;;;;;;;17.33;14.00;;;;;9.22;84.72;21945.88;4846454;29;45618;-86
2022/11/23 08:53:14;;;;;;;;;26.00;24.00;;;;;10.44;84.56;19571.47;4877721;29;45482;-88
2022/11/23 08:55:42;;;;;;;;;34.67;31.00;;;;;9.92;84.44;18107.78;4812524;29;45735;-87
2022/11/23 08:58:14;;;;;;;;;7.00;6.00;;;;;10.77;84.24;18304.13;4806779;29;45672;-89
2022/11/23 09:00:39;;;;;;;;;25.00;23.33;;;;;10.27;84.20;18631.25;4824556;29;45500;-87
2022/11/23 09:03:13;;;;;;;;;8.00;7.00;;;;;10.28;84.45;20171.44;4820585;29;45420;-86
2022/11/23 09:05:41;;;;;;;;;5.00;5.00;;;;;9.29;84.09;17646.25;4822314;29;45548;-88
2022/11/23 09:08:07;;;;;;;;;5.00;4.67;;;;;9.71;85.01;22132.50;4807153;29;45685;-87
2022/11/23 09:10:33;;;;;;;;;13.00;9.00;;;;;9.92;85.21;25940.72;4821068;29;46220;-84
2022/11/23 09:12:58;;;;;;;;;6.00;5.33;;;;;10.78;86.16;28415.28;4822990;29;45827;-85
2022/11/23 09:15:24;;;;;;;;;19.67;19.67;;;;;9.87;86.28;31941.53;4821027;29;45587;-84
2022/11/23 09:17:49;;;;;;;;;6.33;5.00;;;;;10.53;86.72;33532.50;4820126;29;45955;-84
2022/11/23 09:20:15;;;;;;;;;9.67;8.00;;;;;10.71;87.18;35252.50;4817358;29;46402;-85
2022/11/23 09:22:40;;;;;;;;;2.67;2.00;;;;;10.63;87.59;37282.59;4821436;29;45548;-84
2022/11/23 09:25:07;;;;;;;;;7.33;7.33;;;;;9.05;89.03;45663.66;4821379;29;45623;-85
2022/11/23 09:27:32;;;;;;;;;22.33;22.00;;;;;9.86;90.03;50022.88;4821335;29;45436;-85
2022/11/23 09:29:58;;;;;;;;;17.00;15.67;;;;;9.28;91.22;54684.44;4820210;29;45508;-85
2022/11/23 09:32:23;;;;;;;;;5.33;5.00;;;;;9.38;91.84;57132.44;4875255;29;45495;-86
2022/11/23 09:35:29;;;;;;;;;3.00;1.33;;;;;10.31;91.93;58590.91;4878970;29;45343;-88
2022/11/23 09:40:45;;;;;;;;;2.00;2.00;;;;;9.79;93.76;64957.41;4851141;29;45734;-85
2022/11/23 09:43:50;;;;;;;;;4.00;4.00;;;;;10.38;94.55;67048.94;4860523;29;45470;-87
2022/11/23 09:46:53;;;;;;;;;9.33;9.33;;;;;9.85;94.45;68955.44;4854618;29;45487;-89
2022/11/23 09:51:59;;;;;;;;;11.33;11.00;;;;;7.59;94.06;69325.81;5593581;23;45875;-94
2022/11/23 09:57:17;;;;;;;;;3.67;3.67;;;;;9.60;93.66;69300.97;5353616;23;45847;-88
2022/11/23 10:00:20;;;;;;;;;8.67;8.33;;;;;8.94;94.19;70249.44;4887286;29;45466;-89
2022/11/23 10:02:46;;;;;;;;;6.33;6.33;;;;;9.75;95.31;71603.44;4886336;29;47124;-90
2022/11/23 10:05:18;;;;;;;;;3.00;3.00;;;;;9.10;95.48;73803.78;4885651;29;45462;-88
2022/11/23 10:08:05;;;;;;;;;8.67;8.00;;;;;10.49;98.63;76900.81;4870471;29;45351;-89
2022/11/23 10:10:45;;;;;;;;;4.00;3.00;;;;;10.43;100.00;78732.16;4863774;29;45541;-88
2022/11/23 10:13:26;;;;;;;;;4.33;3.67;;;;;10.37;100.00;72234.75;4880841;29;46231;-89
2022/11/23 10:16:14;;;;;;;;;11.67;11.67;;;;;9.85;100.00;70421.47;4868144;29;45470;-87
2022/11/23 10:19:01;;;;;;;;;6.00;3.00;;;;;10.25;100.00;71323.19;4879894;29;45426;-88
2022/11/23 10:21:54;;;;;;;;;8.00;8.00;;;;;10.07;100.00;71595.59;4879687;29;45401;-88
2022/11/23 10:24:24;;;;;;;;;6.00;5.00;;;;;10.25;100.00;71209.47;4870396;29;46413;-83
2022/11/23 10:26:50;;;;;;;;;4.33;4.00;;;;;10.08;100.00;70542.09;4879145;29;45337;-86
2022/11/23 10:29:40;;;;;;;;;23.00;22.33;;;;;9.81;100.00;60807.13;4879455;29;45427;-87
2022/11/23 10:32:21;;;;;;;;;5.33;5.33;;;;;9.84;100.00;39631.41;4872383;29;45526;-87
2022/11/23 10:35:12;;;;;;;;;6.67;5.67;;;;;9.86;100.00;34812.00;4882276;29;47251;-87
2022/11/23 10:37:39;;;;;;;;;4.00;4.00;;;;;10.37;100.00;29314.97;4860005;29;45447;-88
2022/11/23 10:40:31;;;;;;;;;4.00;4.00;;;;;10.20;100.00;27336.66;4873606;29;45338;-87
2022/11/23 10:43:02;;;;;;;;;16.33;13.33;;;;;10.23;100.00;25502.91;4883742;29;45507;-86
2022/11/23 10:45:28;;;;;;;;;5.00;5.00;;;;;10.51;100.00;26169.69;4866573;29;48519;-89
2022/11/23 10:48:08;;;;;;;;;22.33;21.00;;;;;10.54;100.00;26571.56;4880782;29;45578;-87
2022/11/23 10:50:39;;;;;;;;;4.33;3.33;;;;;9.50;100.00;33544.63;4882559;29;45481;-88
2022/11/23 10:56:33;;;;;;;;;3.00;3.00;;;;;9.09;100.00;46868.56;4869958;29;46459;-85
2022/11/23 10:59:24;;;;;;;;;9.00;8.00;;;;;10.71;100.00;48896.34;4858192;29;45837;-86
2022/11/23 11:02:09;;;;;;;;;2.00;2.00;;;;;9.82;100.00;49599.25;4852370;29;45543;-84
2022/11/23 11:04:34;;;;;;;;;2.67;2.67;;;;;9.85;100.00;50731.75;4861258;29;45598;-81
2022/11/23 11:10:53;;;;;;;;;2.00;1.00;;;;;9.46;100.00;53076.25;4860417;29;45533;-87
2022/11/23 11:13:48;;;;;;;;;69.50;53.25;;;;;11.02;100.00;54599.78;4838630;29;45597;-88
2022/11/23 11:16:20;;;;;;;;;7.00;6.00;;;;;10.58;100.00;55892.00;4842461;29;45514;-87
2022/11/23 11:18:46;;;;;;;;;3.00;3.00;;;;;9.86;100.00;56997.25;4842113;29;45602;-86
2022/11/23 11:24:47;;;;;;;;;;;;;;;;;;;;;
2022/11/23 11:27:21;;;;;;;;;1.00;1.00;;;;;9.78;100.00;59773.13;4888906;28;61799;-88
2022/11/23 11:33:31;;;;;;;;;3.00;1.33;;;;;10.24;100.00;60571.63;4860953;29;45930;-86
2022/11/23 11:36:07;;;;;;;;;1.00;1.00;;;;;9.87;100.00;60895.19;4860351;29;45368;-84
2022/11/23 11:39:01;;;;;;;;;4.67;2.67;;;;;11.36;100.00;61176.25;4855517;29;45702;-86
2022/11/23 11:41:28;;;;;;;;;4.67;2.67;;;;;11.68;100.00;62010.94;4861383;29;46589;-86
2022/11/23 11:44:24;;;;;;;;;2.33;1.00;;;;;11.80;100.00;61933.47;4823498;29;45514;-86
2022/11/23 11:46:58;;;;;;;;;3.33;3.33;;;;;11.37;100.00;62419.41;4851137;29;45551;-86
2022/11/23 11:52:55;;;;;;;;;3.00;3.00;;;;;10.98;100.00;62597.91;4861427;29;45515;-85
2022/11/23 11:56:19;;;;;;;;;0.00;0.00;;;;;12.27;100.00;62210.16;4861390;29;45606;-86
2022/11/23 11:59:51;;;;;;;;;1.00;1.00;;;;;11.69;100.00;62349.97;4772762;29;45638;-86
2022/11/23 12:03:14;;;;;;;;;1.00;1.00;;;;;11.29;100.00;62635.91;4782953;29;45629;-87
2022/11/23 12:12:51;;;;;;;;;3.00;2.00;;;;;11.22;100.00;62773.63;5073883;23;67824;-86
2022/11/23 12:16:15;;;;;;;;;;;;;;;;;;;;;
2022/11/23 12:19:31;;;;;;;;;1.67;1.00;;;;;11.55;100.00;63814.06;4853127;29;75946;-86
2022/11/23 12:28:34;;;;;;;;;1.00;1.00;;;;;13.34;100.00;64498.75;4949230;23;45550;-89
2022/11/23 12:39:39;;;;;;;;;0.33;0.00;;;;;14.25;99.73;61506.56;4888787;23;58352;-90
2022/11/23 13:10:50;;;;;;;;;;;;;;;;;;;;;
2022/11/23 13:31:49;;;;;;;;;;;;;;;;;;;;;
2022/11/23 13:34:58;;;;;;;;;2.00;2.00;;;;;14.81;87.55;75753.72;4864437;29;72263;-86
2022/11/23 13:41:15;;;;;;;;;;;;;;;;;;;;;
2022/11/23 13:44:00;;;;;;;;;2.50;1.50;;;;;14.44;85.32;78876.69;4812582;29;73390;-87
2022/11/23 13:46:28;;;;;;;;;5.00;1.25;;;;;14.92;84.90;82072.94;4858219;29;45490;-87
2022/11/23 13:49:24;;;;;;;;;2.00;1.50;;;;;14.49;84.87;84018.91;4859168;29;45466;-85
2022/11/23 13:52:21;;;;;;;;;3.75;0.75;;;;;14.36;83.42;82553.78;4855521;29;45881;-84
2022/11/23 13:54:59;;;;;;;;;1.00;0.67;;;;;14.51;81.84;79733.88;4859499;29;47167;-85
2022/11/23 13:57:27;;;;;;;;;0.75;0.75;;;;;14.92;81.23;68750.94;4859221;29;45774;-86
2022/11/23 13:59:53;;;;;;;;;0.00;0.00;;;;;14.00;79.78;46819.59;4856891;29;45404;-86
2022/11/23 14:02:29;;;;;;;;;1.00;1.00;;;;;14.00;80.35;57611.00;4857468;29;45813;-87
2022/11/23 14:05:34;;;;;;;;;0.00;0.00;;;;;14.80;79.95;60190.31;4853859;29;48136;-91
2022/11/23 14:08:04;;;;;;;;;2.33;1.00;;;;;13.36;78.52;20764.63;4862800;29;45605;-95
2022/11/23 14:10:31;;;;;;;;;2.33;1.00;;;;;13.90;78.58;20578.06;4847974;29;45523;-91
2022/11/23 14:13:52;;;;;;;;;2.00;1.00;;;;;14.15;78.16;11246.81;4859671;29;45480;-89
2022/11/23 14:16:38;;;;;;;;;1.33;0.67;;;;;14.52;78.69;29738.31;4855898;29;46491;-89
2022/11/23 14:19:29;;;;;;;;;0.67;0.00;;;;;14.42;77.78;7233.41;4863494;29;45494;-86
2022/11/23 14:22:32;;;;;;;;;0.00;0.00;;;;;14.34;77.26;-3176.34;4866544;29;45741;-93
2022/11/23 14:25:16;;;;;;;;;0.67;0.67;;;;;14.28;77.12;-8606.78;4869151;29;45344;-94
2022/11/23 14:28:19;;;;;;;;;5.33;0.33;;;;;14.22;76.96;-9732.50;4868480;29;46927;-93
2022/11/23 14:38:05;;;;;;;;;1.67;1.67;;;;;14.13;76.99;1512.88;4875786;29;46077;-90
2022/11/23 14:40:31;;;;;;;;;1.00;1.00;;;;;14.12;77.22;-742.34;4861698;29;47556;-89
2022/11/23 14:42:57;;;;;;;;;2.00;1.00;;;;;13.30;76.57;-7806.72;4896417;28;45676;-85
2022/11/23 14:45:27;;;;;;;;;1.33;1.00;;;;;13.01;77.49;16306.25;4908204;28;45557;-87
2022/11/23 14:47:53;;;;;;;;;2.00;1.00;;;;;13.08;77.12;3736.78;4906128;28;45679;-85
2022/11/23 14:50:28;;;;;;;;;3.33;1.00;;;;;14.10;76.66;-11656.81;4904351;28;46325;-88
2022/11/23 14:53:21;;;;;;;;;1.00;1.00;;;;;13.78;76.82;-6162.78;4908019;28;45674;-85
2022/11/23 14:55:49;;;;;;;;;3.33;1.00;;;;;13.24;76.43;-9792.47;4893335;28;45579;-87
2022/11/23 14:58:15;;;;;;;;;1.00;1.00;;;;;13.14;76.77;3888.91;4908904;28;45889;-90
2022/11/23 15:00:46;;;;;;;;;1.00;1.00;;;;;13.09;76.75;406.59;4887746;29;48092;-85
2022/11/23 15:03:15;;;;;;;;;2.67;2.00;;;;;13.85;76.30;-8021.91;4910856;28;45528;-92
2022/11/23 15:05:51;;;;;;;;;2.67;1.33;;;;;13.05;77.28;9228.50;4887059;28;45541;-92
2022/11/23 15:08:36;;;;;;;;;2.00;2.00;;;;;13.44;76.81;-4021.19;4890195;28;45546;-94
2022/11/23 15:20:15;;;;;;;;;3.33;0.67;;;;;12.88;76.67;627.09;4847437;29;46001;-94
2022/11/23 15:22:43;;;;;;;;;3.33;1.00;;;;;12.87;77.06;12993.50;4844793;29;47660;-94
2022/11/23 15:25:14;;;;;;;;;4.00;2.00;;;;;12.87;77.55;16700.00;4844730;29;45494;-94
2022/11/23 15:28:13;;;;;;;;;3.33;2.00;;;;;12.31;77.73;27461.66;4845542;29;45541;-94
2022/11/23 15:30:38;;;;;;;;;2.00;2.00;;;;;13.18;77.18;808.91;4846272;29;45603;-93
2022/11/23 15:33:25;;;;;;;;;4.00;2.67;;;;;13.21;77.21;8392.34;4839857;29;46935;-95
2022/11/23 15:36:01;;;;;;;;;23.00;18.00;;;;;13.23;76.88;8837.16;4843825;29;45532;-90
2022/11/23 15:38:32;;;;;;;;;10.33;6.00;;;;;12.81;77.45;10068.13;4843974;29;45413;-95
2022/11/23 15:41:03;;;;;;;;;6.67;3.67;;;;;11.96;77.59;15606.91;4845869;29;45813;-96
2022/11/23 15:46:52;;;;;;;;;10.00;10.00;;;;;13.72;78.21;36076.75;4970757;23;71831;-95
2022/11/23 15:57:53;;;;;;;;;13.00;7.00;;;;;12.81;78.17;31466.44;5036575;23;71594;-94
2022/11/23 16:00:24;;;;;;;;;4.67;4.00;;;;;13.07;78.87;30879.13;4876734;29;45648;-94
2022/11/23 16:02:50;;;;;;;;;9.00;8.00;;;;;12.54;78.87;28186.75;4868016;29;45716;-93
2022/11/23 16:05:17;;;;;;;;;13.33;10.00;;;;;13.27;79.26;32802.69;4976368;23;46254;-94
2022/11/23 16:07:50;;;;;;;;;15.33;13.00;;;;;13.54;79.63;41911.06;4896286;29;45569;-93
2022/11/23 16:11:09;;;;;;;;;9.00;9.00;;;;;13.49;78.58;23316.13;4883998;29;45620;-93
2022/11/23 16:13:38;;;;;;;;;8.00;5.33;;;;;13.35;78.88;29195.38;4886154;29;45466;-94
2022/11/23 16:16:18;;;;;;;;;7.33;5.00;;;;;13.41;78.94;24468.09;4879163;29;45818;-90
2022/11/23 16:18:46;;;;;;;;;7.33;7.33;;;;;13.11;79.31;30328.94;4866698;29;45726;-92
2022/11/23 16:23:55;;;;;;;;;9.00;7.67;;;;;12.89;79.06;21399.38;4989572;23;58428;-94
2022/11/23 16:32:27;;;;;;;;;15.67;14.00;;;;;13.23;79.38;30701.09;5170780;23;45632;-93
2022/11/23 16:34:53;;;;;;;;;21.67;15.00;;;;;11.81;79.39;27570.88;4885175;29;45446;-94
2022/11/23 16:37:22;;;;;;;;;11.00;10.00;;;;;11.81;78.82;20273.41;4902522;29;45757;-94
2022/11/23 16:40:33;;;;;;;;;9.67;6.00;;;;;13.20;79.06;23159.13;4892569;29;45526;-94
2022/11/23 16:42:59;;;;;;;;;12.33;9.33;;;;;12.30;78.40;8879.31;4874103;28;45546;-93
2022/11/23 16:45:25;;;;;;;;;10.33;8.00;;;;;12.66;78.50;12480.69;4910052;28;45679;-93
2022/11/23 17:17:09;;;;;;;;;;;;;;;;;;;;;
2022/11/23 17:31:59;;;;;;;;;3.33;2.67;;;;;11.56;75.44;-19520.88;4906105;28;45556;-91
2022/11/23 17:35:06;;;;;;;;;5.33;5.00;;;;;11.59;75.53;-19521.56;5205910;23;46155;-89
2022/11/23 17:37:31;;;;;;;;;6.00;5.00;;;;;11.78;74.54;-19526.69;4901175;28;45523;-91
2022/11/23 17:43:19;;;;;;;;;6.33;5.33;;;;;11.54;74.55;-19520.34;5130157;23;45787;-92
2022/11/23 17:57:04;;;;;;;;;12.00;8.67;;;;;13.04;74.31;-19559.81;4886703;28;45757;-86
2022/11/23 18:14:53;;;;;;;;;11.33;9.33;;;;;12.12;74.33;-19535.44;4905403;23;45515;-86
2022/11/23 18:37:47;;;;;;;;;5.00;5.00;;;;;12.91;74.33;-19556.31;4903550;23;45486;-89
2022/11/23 18:43:11;;;;;;;;;6.67;6.00;;;;;11.37;73.60;-19515.91;4613768;23;45682;-88
2022/11/23 18:45:39;;;;;;;;;9.00;7.00;;;;;11.93;73.67;-19530.47;4880798;29;45815;-87
2022/11/23 18:50:47;;;;;;;;;15.67;12.00;;;;;11.42;73.59;-19517.13;5210792;23;58316;-85
2022/11/23 18:53:12;;;;;;;;;10.67;6.67;;;;;11.90;73.48;-19529.78;4869081;29;46359;-85
2022/11/23 18:55:38;;;;;;;;;9.00;7.33;;;;;12.52;73.74;-19546.09;4875827;29;46223;-86
2022/11/23 18:58:03;;;;;;;;;9.67;8.00;;;;;11.71;73.97;-19524.66;4864705;29;45693;-85
2022/11/23 19:00:32;;;;;;;;;8.00;6.33;;;;;12.46;74.34;-19544.59;4876551;29;46094;-87
2022/11/23 19:02:59;;;;;;;;;8.33;6.00;;;;;12.63;73.65;-19549.03;4884694;29;45677;-85
2022/11/23 19:05:26;;;;;;;;;6.67;6.00;;;;;12.34;73.92;-19541.38;4883071;29;45718;-87
2022/11/23 19:08:13;;;;;;;;;7.33;4.00;;;;;11.25;73.83;-19512.66;4888132;23;45940;-88
2022/11/23 19:18:54;;;;;;;;;7.67;5.00;;;;;12.76;74.49;-19552.28;5389098;23;45922;-86
2022/11/23 19:21:22;;;;;;;;;5.00;3.33;;;;;11.34;74.30;-19515.09;4930469;23;45557;-85
2022/11/23 19:23:53;;;;;;;;;7.00;3.00;;;;;12.72;74.15;-19551.19;4829154;29;46948;-87
2022/11/23 19:26:21;;;;;;;;;5.33;5.00;;;;;11.32;74.30;-19514.56;4820297;29;45449;-83
2022/11/23 19:28:57;;;;;;;;;9.67;6.33;;;;;12.33;74.34;-19540.97;4853590;29;45874;-84
2022/11/23 19:32:12;;;;;;;;;5.00;5.00;;;;;12.72;74.50;-19551.34;4824269;29;45493;-85
2022/11/23 19:34:40;;;;;;;;;7.00;7.00;;;;;11.87;74.93;-19528.84;4831757;29;46317;-84
2022/11/23 19:37:06;;;;;;;;;5.33;3.33;;;;;12.03;74.47;-19533.16;4822650;29;45681;-81
2022/11/23 19:42:45;;;;;;;;;6.00;6.00;;;;;12.34;74.86;-19541.38;4865718;23;1215247;-87
2022/11/23 19:45:10;;;;;;;;;4.00;4.00;;;;;12.29;75.13;-19539.88;4893845;29;45781;-87
2022/11/23 19:47:43;;;;;;;;;9.33;4.67;;;;;12.33;75.03;-19540.97;4894142;28;45339;-88
2022/11/23 19:50:52;;;;;;;;;6.67;4.67;;;;;12.67;75.15;-19550.00;4857971;29;45692;-85
2022/11/23 19:53:18;;;;;;;;;4.67;4.67;;;;;11.01;74.75;-19506.34;4900762;29;45544;-86
2022/11/23 19:55:43;;;;;;;;;6.33;5.67;;;;;11.10;75.35;-19508.75;4898803;29;45945;-85